Lowest pressure

Not for real navigation. The accuracy of this data is not assured See disclaimer for more information



ICAO NAME COUNTRY WIND Kt GUST Kt VIS m TEMP/DEW C BARO METAR
PAMH Minchumina, Minchumina Airport AK United States 3 0 16000 2/-4 29.14 PAMH 220956Z AUTO VRB03KT 10SM OVC100 02/M04 A2914 RMK AO2 SLP626 T00221039 FZRANO
PAMC MCGRATH AIRPORT AK United States 3 0 16000 1/-3 29.15 PAMC 220953Z AUTO 27003KT 10SM SCT060 BKN095 BKN110 01/M03 A2915 RMK AO2 SLP875 T00061028 TS $
PAZK Eureka, Skelton Airport AK United States 7 0 9999 -4/-7 29.16 PAZK 220956Z AUTO 32007KT 10SM CAVOK M04/M07 A2916 RMK AO2 SLP918 T10441072 FZRANO
PATL Takotna, Tatalina LRRS Airport AK United States 5 0 16000 -1/-3 29.16 PATL 220955Z AUTO VRB05KT 10SM BKN060 M01/M03 A2916 RMK AO2 SLP888 T10111035
PARY 4 0 16000 -1/-6 29.16 PARY 220956Z AUTO 29004KT 10SM BKN110 M01/M06 A2916 RMK AO2 SLP900 T10111056 FZRANO

Show more